»·PEaware :: N5225J KSBA-KBUR

N5225J :: KSBA-KBUR

FLIGHT INFORMATION

Flight Status: Arrived
Operator: Privately registered:
United States
More flights under this callsign
Pilot: Cody S. (29806)
Aircraft: CESSNA 310
(C310)
More flights by this aircraft type
Origin: KSBA Santa Barbara Mun
United States
Destination: KBUR Bob Hope-Burbank
United States
More flights between these airports :: More routes between these airports
Route: FIM
File this flight plan on PilotEdge
Remarks: CAT 8
Altitude:
(Current/Filed)
7,500ft
Speed:
(Current/Filed)
165kts
Departed: 17-Nov-20 06:24 PM
Arrived: 17-Nov-20 06:55 PM
Distance/Time
Traveled:
75nm/0:31
Distance/Time
To Go:
Arrived

Flight Plot

Page will automatically refresh every two minutes.


Map Options




Map Legend


Flown Route
Filed Route
Departure Airport
Arrival Airport
Navaid (VOR, NDB)
Fix

Horizontal Profiles

Position Reports

Time Latitude Longitude Heading Altitude Ground
Speed
17-Nov-20 18:01 34.432566 -119.835098 71 18ft 0kts
17-Nov-20 18:02 34.432566 -119.835098 71 18ft 0kts
17-Nov-20 18:03 34.432566 -119.835098 71 18ft 0kts
17-Nov-20 18:04 34.432566 -119.835098 71 18ft 0kts
17-Nov-20 18:05 34.432566 -119.835098 71 18ft 0kts
17-Nov-20 18:06 34.432566 -119.835098 71 18ft 0kts
17-Nov-20 18:07 34.432566 -119.835098 71 18ft 0kts
17-Nov-20 18:08 34.432566 -119.835098 71 18ft 0kts
17-Nov-20 18:09 34.432566 -119.835098 71 18ft 0kts
17-Nov-20 18:10 34.432566 -119.835098 71 18ft 0kts
17-Nov-20 18:11 34.432566 -119.835098 71 17ft 0kts
17-Nov-20 18:12 34.432566 -119.835098 71 17ft 0kts
17-Nov-20 18:13 34.432566 -119.835098 71 17ft 0kts
17-Nov-20 18:14 34.432566 -119.835098 71 17ft 0kts
17-Nov-20 18:15 34.432566 -119.835098 71 17ft 0kts
17-Nov-20 18:16 34.432566 -119.835098 71 17ft 0kts
17-Nov-20 18:17 34.432566 -119.835098 71 17ft 0kts
17-Nov-20 18:18 34.432566 -119.835098 71 17ft 0kts
17-Nov-20 18:19 34.432566 -119.835098 71 17ft 0kts
17-Nov-20 18:19 34.432570 -119.835083 73 17ft 0kts
17-Nov-20 18:21 34.430231 -119.835304 179 15ft 15kts
17-Nov-20 18:21 34.428672 -119.835306 183 14ft 0kts
17-Nov-20 18:22 34.428672 -119.835306 183 14ft 0kts
17-Nov-20 18:23 34.427226 -119.856655 267 397ft 133kts
17-Nov-20 18:24 34.425485 -119.903825 280 1916ft 138kts
17-Nov-20 18:25 34.447487 -119.898205 96 3240ft 117kts
17-Nov-20 18:26 34.431810 -119.867748 115 4399ft 122kts
17-Nov-20 18:27 34.428259 -119.825844 97 5518ft 122kts
17-Nov-20 18:28 34.427434 -119.785036 98 6787ft 141kts
17-Nov-20 18:29 34.424453 -119.728732 99 7499ft 196kts
17-Nov-20 18:30 34.419789 -119.660888 99 7497ft 205kts
17-Nov-20 18:31 34.415098 -119.592731 99 7501ft 202kts
17-Nov-20 18:32 34.410457 -119.524591 99 7500ft 203kts
17-Nov-20 18:33 34.405744 -119.456237 98 7502ft 203kts
17-Nov-20 18:34 34.401131 -119.388568 99 7499ft 202kts
17-Nov-20 18:35 34.395295 -119.320749 101 7499ft 202kts
17-Nov-20 18:36 34.388752 -119.252880 101 7499ft 202kts
17-Nov-20 18:37 34.382238 -119.185190 101 7496ft 202kts
17-Nov-20 18:38 34.375737 -119.117479 101 7490ft 202kts
17-Nov-20 18:39 34.369305 -119.050769 102 7495ft 202kts
17-Nov-20 18:40 34.362816 -118.982445 101 7499ft 204kts
17-Nov-20 18:41 34.353803 -118.914560 108 7503ft 203kts
17-Nov-20 18:42 34.336501 -118.850145 113 7552ft 198kts
17-Nov-20 18:43 34.317627 -118.787265 122 7519ft 195kts
17-Nov-20 18:44 34.296013 -118.734908 114 7812ft 185kts
17-Nov-20 18:45 34.277603 -118.672651 113 7305ft 208kts
17-Nov-20 18:46 34.258516 -118.609549 114 7029ft 189kts
17-Nov-20 18:47 34.242735 -118.556866 113 5923ft 149kts
17-Nov-20 18:48 34.229716 -118.513022 114 5539ft 148kts
17-Nov-20 18:49 34.214290 -118.463115 113 5540ft 167kts
17-Nov-20 18:50 34.198827 -118.414164 115 5547ft 170kts
17-Nov-20 18:51 34.190066 -118.361382 93 3792ft 149kts
17-Nov-20 18:52 34.208982 -118.344258 347 1430ft 104kts
17-Nov-20 18:53 34.221686 -118.361647 180 1179ft 97kts
17-Nov-20 18:54 34.202876 -118.358365 252 738ft 6kts
17-Nov-20 18:55 34.201444 -118.359825 207 733ft 9kts
17-Nov-20 18:56 34.200843 -118.359822 170 730ft 0kts
17-Nov-20 18:57 34.200843 -118.359822 170 730ft 0kts

Navigation Log

Ident Type
Flight plan parsing failed, navigation log unavailable